Time;durP1;ratioP1;P1;durP2;ratioP2;P2;SDS_P1;SDS_P2;PMS_P1;PMS_P2;Temp;Humidity;BMP_temperature;BMP_pressure;BME280_temperature;BME280_humidity;BME280_pressure;Samples;Min_cycle;Max_cycle;Signal;HPM_P1;HPM_P2
2023/04/23 00:00:46;;;;;;;3.45;2.90;;;;;;;;;;4858173;29;20061;-87
2023/04/23 00:03:13;;;;;;;2.70;2.50;;;;;;;;;;4857066;29;20076;-87
2023/04/23 00:05:45;;;;;;;6.53;2.92;;;;;;;;;;4838764;29;20087;-87
2023/04/23 00:08:13;;;;;;;3.90;3.55;;;;;;;;;;4851241;29;20057;-87
2023/04/23 00:10:40;;;;;;;3.85;3.35;;;;;;;;;;4858941;29;20061;-87
2023/04/23 00:13:10;;;;;;;4.28;3.50;;;;;;;;;;4857418;29;20061;-87
2023/04/23 00:15:38;;;;;;;3.20;2.90;;;;;;;;;;4857756;29;20057;-86
2023/04/23 00:18:08;;;;;;;3.78;3.40;;;;;;;;;;4856923;29;20160;-88
2023/04/23 00:20:35;;;;;;;4.28;2.92;;;;;;;;;;4856442;29;20049;-87
2023/04/23 00:23:03;;;;;;;3.53;3.22;;;;;;;;;;4857536;29;20065;-86
2023/04/23 00:25:33;;;;;;;5.15;3.60;;;;;;;;;;4858272;29;20472;-87
2023/04/23 00:28:00;;;;;;;3.10;2.80;;;;;;;;;;4857662;29;20401;-86
2023/04/23 00:30:29;;;;;;;2.88;2.67;;;;;;;;;;4858111;29;20049;-87
2023/04/23 00:32:58;;;;;;;2.97;2.72;;;;;;;;;;4855541;29;20061;-87
2023/04/23 00:35:25;;;;;;;3.50;2.63;;;;;;;;;;4855869;29;20085;-87
2023/04/23 00:37:55;;;;;;;5.80;2.88;;;;;;;;;;4857280;29;20473;-87
2023/04/23 00:40:22;;;;;;;3.25;3.05;;;;;;;;;;4856466;29;20049;-86
2023/04/23 00:42:58;;;;;;;5.38;2.78;;;;;;;;;;4853846;29;20045;-86
2023/04/23 00:45:26;;;;;;;2.65;2.45;;;;;;;;;;4857213;29;20057;-87
2023/04/23 00:47:53;;;;;;;4.13;2.90;;;;;;;;;;4856875;29;20427;-88
2023/04/23 00:50:21;;;;;;;3.63;2.85;;;;;;;;;;4856492;29;20045;-88
2023/04/23 00:52:48;;;;;;;3.50;3.20;;;;;;;;;;4852146;29;20088;-86
2023/04/23 00:55:15;;;;;;;3.05;2.85;;;;;;;;;;4856024;29;20053;-86
2023/04/23 00:57:43;;;;;;;2.72;2.53;;;;;;;;;;4855209;29;20041;-86
2023/04/23 01:00:12;;;;;;;3.53;2.80;;;;;;;;;;4855742;29;20094;-87
2023/04/23 01:02:42;;;;;;;2.78;2.58;;;;;;;;;;4855941;29;20159;-88
2023/04/23 01:05:11;;;;;;;2.78;2.58;;;;;;;;;;4857255;29;20080;-88
2023/04/23 01:07:38;;;;;;;4.45;2.60;;;;;;;;;;4855642;29;20075;-87
2023/04/23 01:10:07;;;;;;;3.60;3.10;;;;;;;;;;4857480;29;20060;-86
2023/04/23 01:12:34;;;;;;;3.38;2.83;;;;;;;;;;4856796;29;20053;-87
2023/04/23 01:15:03;;;;;;;3.15;2.85;;;;;;;;;;4854902;29;20058;-87
2023/04/23 01:17:31;;;;;;;4.13;2.50;;;;;;;;;;4856034;29;20052;-86
2023/04/23 01:19:58;;;;;;;3.08;2.80;;;;;;;;;;4862612;29;20056;-87
2023/04/23 01:22:25;;;;;;;6.53;2.88;;;;;;;;;;4863780;29;20053;-87
2023/04/23 01:24:53;;;;;;;3.22;2.92;;;;;;;;;;4881395;29;20032;-88
2023/04/23 01:27:23;;;;;;;3.08;2.83;;;;;;;;;;4861943;29;20049;-86
2023/04/23 01:29:51;;;;;;;4.43;3.13;;;;;;;;;;4861464;29;20049;-86
2023/04/23 01:32:19;;;;;;;4.95;3.53;;;;;;;;;;4861130;29;20056;-86
2023/04/23 01:34:47;;;;;;;4.45;3.55;;;;;;;;;;4879519;29;20042;-86
2023/04/23 01:37:16;;;;;;;4.00;3.65;;;;;;;;;;4879017;29;20074;-87
2023/04/23 01:39:43;;;;;;;7.00;3.70;;;;;;;;;;4864469;29;20094;-87
2023/04/23 01:42:11;;;;;;;3.92;3.53;;;;;;;;;;4853827;29;20049;-87
2023/04/23 01:44:39;;;;;;;3.75;3.45;;;;;;;;;;4855337;29;20125;-86
2023/04/23 01:47:07;;;;;;;6.00;4.03;;;;;;;;;;4854989;29;20064;-87
2023/04/23 01:49:34;;;;;;;7.25;3.42;;;;;;;;;;4854862;29;20137;-87
2023/04/23 01:52:02;;;;;;;4.88;3.63;;;;;;;;;;4861940;29;20049;-86
2023/04/23 01:54:30;;;;;;;4.13;3.72;;;;;;;;;;4855194;29;20049;-87
2023/04/23 01:56:57;;;;;;;4.50;4.10;;;;;;;;;;4856027;29;20120;-87
2023/04/23 01:59:25;;;;;;;11.98;4.28;;;;;;;;;;4854740;29;20058;-87
2023/04/23 02:01:52;;;;;;;4.68;3.40;;;;;;;;;;4854719;29;20068;-88
2023/04/23 02:04:20;;;;;;;4.18;3.50;;;;;;;;;;4839692;29;20152;-86
2023/04/23 02:06:49;;;;;;;4.10;3.70;;;;;;;;;;4856093;29;20057;-87
2023/04/23 02:09:17;;;;;;;4.30;3.88;;;;;;;;;;4848374;29;20049;-87
2023/04/23 02:11:44;;;;;;;3.95;3.35;;;;;;;;;;4850456;29;20113;-86
2023/04/23 02:14:11;;;;;;;3.88;3.58;;;;;;;;;;4862404;29;20049;-86
2023/04/23 02:16:39;;;;;;;4.15;3.47;;;;;;;;;;4858944;29;20146;-87
2023/04/23 02:19:07;;;;;;;3.60;3.30;;;;;;;;;;4868809;29;20057;-87
2023/04/23 02:21:34;;;;;;;4.07;3.72;;;;;;;;;;4858245;29;20050;-87
2023/04/23 02:24:04;;;;;;;3.63;3.28;;;;;;;;;;4867327;29;20156;-87
2023/04/23 02:26:31;;;;;;;4.95;3.08;;;;;;;;;;4857374;29;20073;-86
2023/04/23 02:28:59;;;;;;;3.90;3.47;;;;;;;;;;4854329;29;20057;-86
2023/04/23 02:31:26;;;;;;;5.63;3.65;;;;;;;;;;4855654;29;20056;-88
2023/04/23 02:33:54;;;;;;;4.18;3.70;;;;;;;;;;4854470;29;20049;-87
2023/04/23 02:36:21;;;;;;;4.32;3.10;;;;;;;;;;4862094;29;20049;-87
2023/04/23 02:38:50;;;;;;;4.15;3.25;;;;;;;;;;4866126;29;20131;-87
2023/04/23 02:41:17;;;;;;;3.05;2.85;;;;;;;;;;4866144;29;20503;-90
2023/04/23 02:43:45;;;;;;;3.72;3.33;;;;;;;;;;4855408;29;20053;-89
2023/04/23 02:46:13;;;;;;;7.82;5.30;;;;;;;;;;4854431;29;20056;-87
2023/04/23 02:48:41;;;;;;;3.40;3.10;;;;;;;;;;4857697;29;20077;-87
2023/04/23 02:51:09;;;;;;;5.35;3.45;;;;;;;;;;4859272;29;20077;-87
2023/04/23 02:53:37;;;;;;;4.25;3.38;;;;;;;;;;4858999;29;20062;-87
2023/04/23 02:56:04;;;;;;;3.97;3.15;;;;;;;;;;4857499;29;20037;-86
2023/04/23 02:58:31;;;;;;;3.20;2.88;;;;;;;;;;4848209;29;20415;-86
2023/04/23 03:01:00;;;;;;;3.53;3.22;;;;;;;;;;4857576;29;20076;-86
2023/04/23 03:03:30;;;;;;;6.43;3.45;;;;;;;;;;4857619;29;20057;-86
2023/04/23 03:06:00;;;;;;;5.10;3.60;;;;;;;;;;4857995;29;20049;-88
2023/04/23 03:08:28;;;;;;;4.25;3.20;;;;;;;;;;4858432;29;20061;-86
2023/04/23 03:10:55;;;;;;;3.53;3.33;;;;;;;;;;4857311;29;20049;-87
2023/04/23 03:13:22;;;;;;;4.50;3.80;;;;;;;;;;4856507;29;20052;-87
2023/04/23 03:15:50;;;;;;;3.97;3.67;;;;;;;;;;4859864;29;20073;-87
2023/04/23 03:18:18;;;;;;;4.00;3.60;;;;;;;;;;4857498;29;20057;-87
2023/04/23 03:20:48;;;;;;;5.38;3.60;;;;;;;;;;4856990;29;20057;-87
2023/04/23 03:23:17;;;;;;;3.95;3.30;;;;;;;;;;4855304;29;20057;-87
2023/04/23 03:25:46;;;;;;;4.20;3.67;;;;;;;;;;4857406;29;20089;-87
2023/04/23 03:28:13;;;;;;;5.00;3.40;;;;;;;;;;4861584;29;20064;-86
2023/04/23 03:30:41;;;;;;;3.88;3.03;;;;;;;;;;4857772;29;20058;-87
2023/04/23 03:33:08;;;;;;;3.30;3.00;;;;;;;;;;4857004;29;20052;-87
2023/04/23 03:35:36;;;;;;;3.92;3.47;;;;;;;;;;4857073;29;20385;-87
2023/04/23 03:38:08;;;;;;;3.55;3.25;;;;;;;;;;4858622;29;20056;-87
2023/04/23 03:40:36;;;;;;;6.53;3.72;;;;;;;;;;4862845;29;20049;-88
2023/04/23 03:43:06;;;;;;;3.90;3.60;;;;;;;;;;4858280;29;20049;-86
2023/04/23 03:45:52;;;;;;;6.00;3.70;;;;;;;;;;4857939;29;20045;-85
2023/04/23 03:48:20;;;;;;;3.95;3.65;;;;;;;;;;4859396;29;20528;-86
2023/04/23 03:50:48;;;;;;;3.70;3.38;;;;;;;;;;4856925;29;20069;-86
2023/04/23 03:53:31;;;;;;;3.78;3.40;;;;;;;;;;4853547;29;20046;-85
2023/04/23 03:56:20;;;;;;;6.13;3.78;;;;;;;;;;4850233;29;20062;-85
2023/04/23 03:58:56;;;;;;;5.90;3.50;;;;;;;;;;4848576;29;20531;-86
2023/04/23 04:01:24;;;;;;;3.58;3.28;;;;;;;;;;4858454;29;20057;-86
2023/04/23 04:03:51;;;;;;;4.25;3.85;;;;;;;;;;4854577;29;20132;-85
2023/04/23 04:06:22;;;;;;;3.78;3.28;;;;;;;;;;4857851;29;20056;-86
2023/04/23 04:08:49;;;;;;;3.78;3.47;;;;;;;;;;4855402;29;20049;-85
2023/04/23 04:11:17;;;;;;;4.72;4.10;;;;;;;;;;4857971;29;20065;-86
2023/04/23 04:13:44;;;;;;;5.43;3.65;;;;;;;;;;4861158;29;20052;-85
2023/04/23 04:16:11;;;;;;;3.90;3.60;;;;;;;;;;4859677;29;20050;-86
2023/04/23 04:18:39;;;;;;;6.07;5.57;;;;;;;;;;4855786;29;20053;-86
2023/04/23 04:21:06;;;;;;;9.95;5.28;;;;;;;;;;4857719;29;20641;-86
2023/04/23 04:23:33;;;;;;;4.60;4.20;;;;;;;;;;4856384;29;20528;-87
2023/04/23 04:26:01;;;;;;;4.32;3.92;;;;;;;;;;4858391;29;20068;-86
2023/04/23 04:28:29;;;;;;;6.68;4.65;;;;;;;;;;4866352;29;20050;-86
2023/04/23 04:30:56;;;;;;;4.95;4.45;;;;;;;;;;4865133;29;20049;-86
2023/04/23 04:33:24;;;;;;;5.63;4.95;;;;;;;;;;4865352;29;20057;-86
2023/04/23 04:35:53;;;;;;;5.47;3.92;;;;;;;;;;4871579;29;20057;-86
2023/04/23 04:38:21;;;;;;;7.40;6.70;;;;;;;;;;4857537;29;20084;-86
2023/04/23 04:40:49;;;;;;;7.20;6.50;;;;;;;;;;4867689;29;20037;-87
2023/04/23 04:43:17;;;;;;;5.68;5.00;;;;;;;;;;4879795;29;20105;-85
2023/04/23 04:45:44;;;;;;;4.90;4.35;;;;;;;;;;4872987;29;20129;-86
2023/04/23 04:48:11;;;;;;;5.70;5.20;;;;;;;;;;4880790;29;20045;-86
2023/04/23 04:50:39;;;;;;;7.55;4.82;;;;;;;;;;4873123;29;20045;-86
2023/04/23 04:53:06;;;;;;;6.95;5.60;;;;;;;;;;4877393;29;20049;-85
2023/04/23 04:55:33;;;;;;;4.63;4.20;;;;;;;;;;4871270;29;20631;-85
2023/04/23 04:58:01;;;;;;;4.85;3.85;;;;;;;;;;4856657;29;20057;-86
2023/04/23 05:00:29;;;;;;;4.40;4.07;;;;;;;;;;4865202;29;20065;-85
2023/04/23 05:02:57;;;;;;;4.43;4.03;;;;;;;;;;4856641;29;20920;-85
2023/04/23 05:05:26;;;;;;;4.85;4.35;;;;;;;;;;4851877;29;20688;-86
2023/04/23 05:07:53;;;;;;;10.13;4.10;;;;;;;;;;4850627;29;20064;-85
2023/04/23 05:10:21;;;;;;;6.63;3.97;;;;;;;;;;4855859;29;20129;-86
2023/04/23 05:12:50;;;;;;;4.20;3.88;;;;;;;;;;4855946;29;20061;-86
2023/04/23 05:15:17;;;;;;;5.28;4.47;;;;;;;;;;4851845;29;20049;-86
2023/04/23 05:17:45;;;;;;;4.65;4.25;;;;;;;;;;4853596;29;20041;-85
2023/04/23 05:20:13;;;;;;;5.65;4.40;;;;;;;;;;4857655;29;20046;-87
2023/04/23 05:22:41;;;;;;;4.70;4.40;;;;;;;;;;4851021;29;20188;-86
2023/04/23 05:25:10;;;;;;;5.22;4.40;;;;;;;;;;4856584;29;20061;-86
2023/04/23 05:27:38;;;;;;;6.00;4.50;;;;;;;;;;4855609;29;20049;-85
2023/04/23 05:30:08;;;;;;;4.65;4.25;;;;;;;;;;4857495;29;20110;-86
2023/04/23 05:32:36;;;;;;;7.25;4.47;;;;;;;;;;4856545;29;20452;-86
2023/04/23 05:35:04;;;;;;;5.88;4.10;;;;;;;;;;4864231;29;20109;-86
2023/04/23 05:37:33;;;;;;;4.43;4.03;;;;;;;;;;4856072;29;20067;-86
2023/04/23 05:40:01;;;;;;;4.93;4.50;;;;;;;;;;4856685;29;20057;-86
2023/04/23 05:42:31;;;;;;;6.67;4.53;;;;;;;;;;4852794;29;20082;-86
2023/04/23 05:44:58;;;;;;;5.90;4.40;;;;;;;;;;4856514;29;20041;-86
2023/04/23 05:47:25;;;;;;;7.10;4.10;;;;;;;;;;4855841;29;20057;-86
2023/04/23 05:49:53;;;;;;;5.20;4.35;;;;;;;;;;4856138;29;20194;-86
2023/04/23 05:52:20;;;;;;;8.98;4.38;;;;;;;;;;4864025;29;20052;-86
2023/04/23 05:54:48;;;;;;;4.45;4.07;;;;;;;;;;4849258;29;20061;-86
2023/04/23 05:57:15;;;;;;;6.25;4.07;;;;;;;;;;4857224;29;20061;-86
2023/04/23 05:59:42;;;;;;;4.70;4.30;;;;;;;;;;4856158;29;20049;-86
2023/04/23 06:02:10;;;;;;;5.70;4.47;;;;;;;;;;4854594;29;20061;-86
2023/04/23 06:04:38;;;;;;;6.40;3.75;;;;;;;;;;4852929;29;20053;-86
2023/04/23 06:07:06;;;;;;;6.38;4.22;;;;;;;;;;4854796;29;20049;-86
2023/04/23 06:09:33;;;;;;;4.57;4.25;;;;;;;;;;4856641;29;20049;-86
2023/04/23 06:12:02;;;;;;;4.30;3.95;;;;;;;;;;4856647;29;20046;-86
2023/04/23 06:14:29;;;;;;;5.32;4.93;;;;;;;;;;4848332;29;20049;-88
2023/04/23 06:16:56;;;;;;;6.88;4.43;;;;;;;;;;4855714;29;20050;-87
2023/04/23 06:19:26;;;;;;;5.05;4.40;;;;;;;;;;4857483;29;20491;-85
2023/04/23 06:21:53;;;;;;;8.50;7.60;;;;;;;;;;4862297;29;20205;-86
2023/04/23 06:24:21;;;;;;;5.43;4.93;;;;;;;;;;4851076;29;20524;-86
2023/04/23 06:26:48;;;;;;;11.50;9.73;;;;;;;;;;4867042;29;20057;-88
2023/04/23 06:29:18;;;;;;;6.07;4.80;;;;;;;;;;4862774;29;20076;-87
2023/04/23 06:31:56;;;;;;;4.70;4.20;;;;;;;;;;4862095;29;20057;-86
2023/04/23 06:34:23;;;;;;;9.55;4.00;;;;;;;;;;4858137;29;20056;-86
2023/04/23 06:36:51;;;;;;;4.40;4.03;;;;;;;;;;4860013;29;20057;-86
2023/04/23 06:39:18;;;;;;;4.82;4.15;;;;;;;;;;4858983;29;20058;-87
2023/04/23 06:41:45;;;;;;;6.18;4.28;;;;;;;;;;4859482;29;20050;-86
2023/04/23 06:44:30;;;;;;;5.15;4.65;;;;;;;;;;4851874;29;20057;-88
2023/04/23 06:46:58;;;;;;;4.82;4.43;;;;;;;;;;4860332;29;20113;-86
2023/04/23 06:49:26;;;;;;;7.22;4.22;;;;;;;;;;4858999;29;20069;-87
2023/04/23 06:51:53;;;;;;;7.80;4.15;;;;;;;;;;4862923;29;20108;-87
2023/04/23 06:54:23;;;;;;;5.88;4.30;;;;;;;;;;4860230;29;20432;-86
2023/04/23 06:56:51;;;;;;;6.75;4.45;;;;;;;;;;4853288;29;20109;-87
2023/04/23 06:59:18;;;;;;;5.65;4.10;;;;;;;;;;4860642;29;20072;-87
2023/04/23 07:01:49;;;;;;;7.15;4.68;;;;;;;;;;4857953;29;20057;-86
2023/04/23 07:04:17;;;;;;;4.55;4.13;;;;;;;;;;4858401;29;20057;-86
2023/04/23 07:06:44;;;;;;;5.22;4.63;;;;;;;;;;4859615;29;20049;-85
2023/04/23 07:09:12;;;;;;;4.20;3.90;;;;;;;;;;4858929;29;20042;-86
2023/04/23 07:11:39;;;;;;;7.55;4.47;;;;;;;;;;4858977;29;20147;-86
2023/04/23 07:14:07;;;;;;;5.03;4.45;;;;;;;;;;4856778;29;20130;-88
2023/04/23 07:16:35;;;;;;;4.28;3.88;;;;;;;;;;4859991;29;20077;-86
2023/04/23 07:19:02;;;;;;;4.80;4.30;;;;;;;;;;4853158;29;20094;-85
2023/04/23 07:21:31;;;;;;;5.63;4.28;;;;;;;;;;4859200;29;20045;-86
2023/04/23 07:23:59;;;;;;;4.13;3.63;;;;;;;;;;4859552;29;20065;-87
2023/04/23 07:26:27;;;;;;;4.97;3.97;;;;;;;;;;4860252;29;20060;-86
2023/04/23 07:28:54;;;;;;;4.85;4.38;;;;;;;;;;4860543;29;20053;-88
2023/04/23 07:31:22;;;;;;;4.20;3.80;;;;;;;;;;4859780;29;20049;-87
2023/04/23 07:33:50;;;;;;;6.82;3.90;;;;;;;;;;4859896;29;20045;-86
2023/04/23 07:36:17;;;;;;;5.35;3.70;;;;;;;;;;4859874;29;20053;-86
2023/04/23 07:38:44;;;;;;;6.43;3.95;;;;;;;;;;4863171;29;20061;-87
2023/04/23 07:41:12;;;;;;;6.90;4.22;;;;;;;;;;4864740;29;20104;-87
2023/04/23 07:43:39;;;;;;;7.70;4.43;;;;;;;;;;4858383;29;20110;-88
2023/04/23 07:46:07;;;;;;;4.90;4.35;;;;;;;;;;4860089;29;20058;-87
2023/04/23 07:48:34;;;;;;;6.40;4.25;;;;;;;;;;4864497;29;20060;-87
2023/04/23 07:51:02;;;;;;;6.05;4.50;;;;;;;;;;4867994;29;20222;-88
2023/04/23 07:53:30;;;;;;;5.68;4.35;;;;;;;;;;4884302;29;20070;-86
2023/04/23 07:55:58;;;;;;;6.53;4.80;;;;;;;;;;4875493;29;20064;-87
2023/04/23 07:58:25;;;;;;;8.20;4.80;;;;;;;;;;4878862;29;20038;-86
2023/04/23 08:00:52;;;;;;;4.28;3.90;;;;;;;;;;4889217;29;20032;-86
2023/04/23 08:03:20;;;;;;;6.03;4.30;;;;;;;;;;4884053;29;20133;-86
2023/04/23 08:05:48;;;;;;;6.47;3.72;;;;;;;;;;4864803;29;20041;-86
2023/04/23 08:08:15;;;;;;;5.18;3.90;;;;;;;;;;4874335;29;20120;-87
2023/04/23 08:10:42;;;;;;;4.20;3.40;;;;;;;;;;4868477;29;20563;-86
2023/04/23 08:13:11;;;;;;;4.80;4.43;;;;;;;;;;4858095;29;20071;-86
2023/04/23 08:15:38;;;;;;;5.28;3.45;;;;;;;;;;4852205;29;20113;-86
2023/04/23 08:18:05;;;;;;;4.60;3.97;;;;;;;;;;4854478;29;20054;-86
2023/04/23 08:20:33;;;;;;;4.57;3.92;;;;;;;;;;4855998;29;20049;-86
2023/04/23 08:23:01;;;;;;;3.95;3.65;;;;;;;;;;4856099;29;20057;-87
2023/04/23 08:25:31;;;;;;;8.50;4.10;;;;;;;;;;4854390;29;20057;-85
2023/04/23 08:27:59;;;;;;;3.85;3.55;;;;;;;;;;4854183;29;20404;-85
2023/04/23 08:30:28;;;;;;;5.65;3.95;;;;;;;;;;4857516;29;20615;-86
2023/04/23 08:32:58;;;;;;;5.22;3.90;;;;;;;;;;4853759;29;20056;-87
2023/04/23 08:35:26;;;;;;;5.70;4.07;;;;;;;;;;4854978;29;20045;-88
2023/04/23 08:37:53;;;;;;;3.60;3.40;;;;;;;;;;4855619;29;20940;-87
2023/04/23 08:40:21;;;;;;;7.65;3.95;;;;;;;;;;4853540;29;20410;-86
2023/04/23 08:42:57;;;;;;;4.97;3.60;;;;;;;;;;4853854;29;20215;-87
2023/04/23 08:45:28;;;;;;;3.80;3.50;;;;;;;;;;4851095;29;20105;-88
2023/04/23 08:48:00;;;;;;;5.10;3.92;;;;;;;;;;4854108;29;20063;-87
2023/04/23 08:50:30;;;;;;;9.10;3.97;;;;;;;;;;4853240;29;20050;-87
2023/04/23 08:52:58;;;;;;;7.15;4.00;;;;;;;;;;4856523;29;20401;-86
2023/04/23 08:55:26;;;;;;;3.72;3.40;;;;;;;;;;4855206;29;20049;-87
2023/04/23 08:57:55;;;;;;;5.97;5.45;;;;;;;;;;4853439;29;20049;-87
2023/04/23 09:00:24;;;;;;;4.57;4.07;;;;;;;;;;4854245;29;20637;-87
2023/04/23 09:02:52;;;;;;;5.47;4.00;;;;;;;;;;4854699;29;20083;-88
2023/04/23 09:05:19;;;;;;;4.18;3.75;;;;;;;;;;4855102;29;20516;-86
2023/04/23 09:07:47;;;;;;;4.85;3.33;;;;;;;;;;4851445;29;20049;-87
2023/04/23 09:10:14;;;;;;;4.47;3.78;;;;;;;;;;4849496;29;20054;-88
2023/04/23 09:12:45;;;;;;;3.40;3.10;;;;;;;;;;4854161;29;20065;-87
2023/04/23 09:15:13;;;;;;;4.13;3.35;;;;;;;;;;4859821;29;20049;-87
2023/04/23 09:17:43;;;;;;;5.00;2.65;;;;;;;;;;4858896;29;20041;-87
2023/04/23 09:20:14;;;;;;;;;;;;;;;;;;4859957;29;20053;-87
2023/04/23 09:22:41;;;;;;;4.53;2.50;;;;;;;;;;4856027;29;20035;-86
2023/04/23 09:25:13;;;;;;;3.30;3.00;;;;;;;;;;4855933;29;20046;-88
2023/04/23 09:27:40;;;;;;;2.40;2.13;;;;;;;;;;4858702;29;20057;-88
2023/04/23 09:30:10;;;;;;;2.55;2.00;;;;;;;;;;4855515;29;20053;-87
2023/04/23 09:32:40;;;;;;;3.10;2.30;;;;;;;;;;4852687;29;20144;-87
2023/04/23 09:35:09;;;;;;;2.10;1.73;;;;;;;;;;4852487;29;20054;-86
2023/04/23 09:37:36;;;;;;;2.83;2.10;;;;;;;;;;4853877;29;20132;-86
2023/04/23 09:40:07;;;;;;;1.88;1.77;;;;;;;;;;4852886;29;20041;-85
2023/04/23 09:42:35;;;;;;;2.13;1.63;;;;;;;;;;4855392;29;20065;-86
2023/04/23 09:45:04;;;;;;;3.45;1.60;;;;;;;;;;4854532;29;20080;-87
2023/04/23 09:47:33;;;;;;;2.35;1.80;;;;;;;;;;4853929;29;20054;-87
2023/04/23 09:50:01;;;;;;;1.58;1.30;;;;;;;;;;4852992;29;20371;-86
2023/04/23 09:52:31;;;;;;;1.58;1.33;;;;;;;;;;4852608;29;20065;-86
2023/04/23 09:54:58;;;;;;;1.95;1.75;;;;;;;;;;4860598;29;20052;-86
2023/04/23 09:57:25;;;;;;;1.70;1.60;;;;;;;;;;4863463;29;20053;-86
2023/04/23 09:59:55;;;;;;;4.88;1.77;;;;;;;;;;4858782;29;20045;-87
2023/04/23 10:02:38;;;;;;;1.60;1.50;;;;;;;;;;4857318;29;20512;-86
2023/04/23 10:05:17;;;;;;;2.65;1.60;;;;;;;;;;4852388;29;20045;-87
2023/04/23 10:07:55;;;;;;;3.15;1.55;;;;;;;;;;4856460;29;20068;-87
2023/04/23 10:10:23;;;;;;;3.75;1.80;;;;;;;;;;4857467;29;20441;-85
2023/04/23 10:12:52;;;;;;;1.85;1.75;;;;;;;;;;4863407;29;20054;-86
2023/04/23 10:15:24;;;;;;;1.85;1.63;;;;;;;;;;4857449;29;20045;-86
2023/04/23 10:17:51;;;;;;;3.55;2.15;;;;;;;;;;4860511;29;20049;-86
2023/04/23 10:20:20;;;;;;;1.80;1.70;;;;;;;;;;4857799;29;20049;-86
2023/04/23 10:22:48;;;;;;;2.83;2.60;;;;;;;;;;4859272;29;20145;-87
2023/04/23 10:25:15;;;;;;;2.92;1.70;;;;;;;;;;4852253;29;20049;-88
2023/04/23 10:27:45;;;;;;;3.92;1.70;;;;;;;;;;4860296;29;20053;-87
2023/04/23 10:30:21;;;;;;;1.60;1.50;;;;;;;;;;4855963;29;20049;-86
2023/04/23 10:32:50;;;;;;;1.80;1.30;;;;;;;;;;4857141;29;20048;-88
2023/04/23 10:35:18;;;;;;;1.95;1.30;;;;;;;;;;4856787;29;20050;-87
2023/04/23 10:37:46;;;;;;;1.63;1.23;;;;;;;;;;4856558;29;20054;-87
2023/04/23 10:40:18;;;;;;;1.33;1.00;;;;;;;;;;4855736;29;20122;-87
2023/04/23 10:42:46;;;;;;;1.20;1.05;;;;;;;;;;4852865;29;20061;-85
2023/04/23 10:45:17;;;;;;;1.30;1.20;;;;;;;;;;4854369;29;20049;-85
2023/04/23 10:47:47;;;;;;;1.33;0.90;;;;;;;;;;4855493;29;20058;-86
2023/04/23 10:50:19;;;;;;;1.80;1.05;;;;;;;;;;4858893;29;20081;-87
2023/04/23 10:52:50;;;;;;;3.63;1.40;;;;;;;;;;4858112;29;20133;-85
2023/04/23 10:55:21;;;;;;;0.98;0.98;;;;;;;;;;4866059;29;20072;-86
2023/04/23 10:58:01;;;;;;;0.98;0.98;;;;;;;;;;4874650;29;20049;-87
2023/04/23 11:00:42;;;;;;;2.17;1.10;;;;;;;;;;4879584;29;20117;-86
2023/04/23 11:03:29;;;;;;;1.27;1.13;;;;;;;;;;4873703;29;20121;-87
2023/04/23 11:06:03;;;;;;;1.27;1.23;;;;;;;;;;4873541;29;20053;-88
2023/04/23 11:08:31;;;;;;;1.20;1.10;;;;;;;;;;4874525;29;20053;-85
2023/04/23 11:10:59;;;;;;;1.90;1.27;;;;;;;;;;4875812;29;20104;-85
2023/04/23 11:13:27;;;;;;;0.90;0.90;;;;;;;;;;4874421;29;20182;-87
2023/04/23 11:16:15;;;;;;;1.33;1.23;;;;;;;;;;4877241;29;20093;-89
2023/04/23 11:19:05;;;;;;;2.45;1.13;;;;;;;;;;4869701;29;20119;-87
2023/04/23 11:21:51;;;;;;;0.95;0.95;;;;;;;;;;4872564;29;20064;-86
2023/04/23 11:24:18;;;;;;;1.17;1.00;;;;;;;;;;4879775;29;20060;-85
2023/04/23 11:26:48;;;;;;;1.70;1.23;;;;;;;;;;4859288;29;20086;-85
2023/04/23 11:29:15;;;;;;;1.33;1.20;;;;;;;;;;4856375;29;20049;-85
2023/04/23 11:31:42;;;;;;;1.80;1.00;;;;;;;;;;4850483;29;20086;-86
2023/04/23 11:34:28;;;;;;;2.58;0.90;;;;;;;;;;4856206;29;20052;-85
2023/04/23 11:36:57;;;;;;;1.08;1.00;;;;;;;;;;4853849;29;20049;-85
2023/04/23 11:39:25;;;;;;;1.15;1.02;;;;;;;;;;4854278;29;20143;-85
2023/04/23 11:41:53;;;;;;;1.05;0.82;;;;;;;;;;4857767;29;20543;-86
2023/04/23 11:44:21;;;;;;;0.90;0.90;;;;;;;;;;4860668;29;20497;-86
2023/04/23 11:46:49;;;;;;;0.82;0.80;;;;;;;;;;4854981;29;20057;-86
2023/04/23 11:49:16;;;;;;;1.88;0.70;;;;;;;;;;4856838;29;20086;-85
2023/04/23 11:51:45;;;;;;;0.73;0.73;;;;;;;;;;4854987;29;20061;-87
2023/04/23 11:54:13;;;;;;;0.90;0.90;;;;;;;;;;4855777;29;20087;-86
2023/04/23 11:56:42;;;;;;;7.97;6.90;;;;;;;;;;4854587;29;20046;-85
2023/04/23 11:59:10;;;;;;;1.52;0.68;;;;;;;;;;4854271;29;20053;-86
2023/04/23 12:01:43;;;;;;;1.85;0.75;;;;;;;;;;4854694;29;20608;-88
2023/04/23 12:04:12;;;;;;;0.50;0.50;;;;;;;;;;4853306;29;20142;-86
2023/04/23 12:06:41;;;;;;;0.65;0.65;;;;;;;;;;4853855;29;20061;-86
2023/04/23 12:09:10;;;;;;;3.13;1.30;;;;;;;;;;4851426;29;20113;-86
2023/04/23 12:11:37;;;;;;;1.02;0.60;;;;;;;;;;4847484;29;20771;-87
2023/04/23 12:14:07;;;;;;;0.75;0.75;;;;;;;;;;4853220;29;20054;-86
2023/04/23 12:16:34;;;;;;;0.80;0.80;;;;;;;;;;4855381;29;20140;-86
2023/04/23 12:19:02;;;;;;;1.00;1.00;;;;;;;;;;4856149;29;20069;-86
2023/04/23 12:21:29;;;;;;;3.38;1.15;;;;;;;;;;4857966;29;20074;-88
2023/04/23 12:24:02;;;;;;;1.02;0.80;;;;;;;;;;4852762;29;20508;-85
2023/04/23 12:26:30;;;;;;;1.08;0.80;;;;;;;;;;4851166;29;20704;-85
2023/04/23 12:28:58;;;;;;;0.75;0.50;;;;;;;;;;4858097;29;20413;-86
2023/04/23 12:31:27;;;;;;;0.80;0.80;;;;;;;;;;4854306;29;20731;-86
2023/04/23 12:33:58;;;;;;;0.82;0.73;;;;;;;;;;4850530;29;20049;-87
2023/04/23 12:36:35;;;;;;;1.50;0.60;;;;;;;;;;4855744;29;20067;-86
2023/04/23 12:39:07;;;;;;;;;;;;;;;;;;4855274;29;20049;-86
2023/04/23 12:41:34;;;;;;;0.70;0.70;;;;;;;;;;4852270;29;19977;-86
2023/04/23 12:44:04;;;;;;;2.10;0.95;;;;;;;;;;4850115;29;20057;-88
2023/04/23 12:46:32;;;;;;;2.72;0.80;;;;;;;;;;4853787;29;20049;-87
2023/04/23 12:48:59;;;;;;;1.00;0.90;;;;;;;;;;4855731;29;20068;-87
2023/04/23 12:51:27;;;;;;;0.80;0.80;;;;;;;;;;4859017;29;20041;-86
2023/04/23 12:53:55;;;;;;;1.50;0.85;;;;;;;;;;4863862;29;20117;-86
2023/04/23 12:56:22;;;;;;;1.73;1.02;;;;;;;;;;4858531;29;20480;-85
2023/04/23 12:58:50;;;;;;;1.45;0.80;;;;;;;;;;4848515;29;20057;-85
2023/04/23 13:01:17;;;;;;;2.05;0.93;;;;;;;;;;4851507;29;20042;-85
2023/04/23 13:03:45;;;;;;;2.80;1.00;;;;;;;;;;4857206;29;20415;-86
2023/04/23 13:06:16;;;;;;;0.98;0.90;;;;;;;;;;4859120;29;20053;-87
2023/04/23 13:11:38;;;;;;;1.00;0.90;;;;;;;;;;4848264;29;20061;-85
2023/04/23 13:14:06;;;;;;;0.75;0.75;;;;;;;;;;4848198;29;20050;-86
2023/04/23 13:16:34;;;;;;;1.73;1.00;;;;;;;;;;4849629;29;20125;-85
2023/04/23 13:19:04;;;;;;;1.73;1.20;;;;;;;;;;4862045;29;20593;-83
2023/04/23 13:21:31;;;;;;;1.85;1.13;;;;;;;;;;4859444;29;20078;-85
2023/04/23 13:24:00;;;;;;;2.28;1.60;;;;;;;;;;4856000;29;20053;-85
2023/04/23 13:26:31;;;;;;;1.00;1.00;;;;;;;;;;4859054;29;20076;-85
2023/04/23 13:28:59;;;;;;;2.13;0.95;;;;;;;;;;4853757;29;20519;-86
2023/04/23 13:31:27;;;;;;;0.90;0.90;;;;;;;;;;4843310;29;20064;-85
2023/04/23 13:33:55;;;;;;;2.22;1.00;;;;;;;;;;4857455;29;20820;-85
2023/04/23 13:36:22;;;;;;;1.40;1.00;;;;;;;;;;4859497;29;20133;-86
2023/04/23 13:38:50;;;;;;;1.10;0.93;;;;;;;;;;4855226;29;20094;-87
2023/04/23 13:41:20;;;;;;;1.33;1.20;;;;;;;;;;4858002;29;20046;-85
2023/04/23 13:43:48;;;;;;;1.35;1.25;;;;;;;;;;4860460;29;20049;-87
2023/04/23 13:46:15;;;;;;;0.95;0.90;;;;;;;;;;4857021;29;20082;-85
2023/04/23 13:48:43;;;;;;;2.45;1.80;;;;;;;;;;4861604;29;20076;-86
2023/04/23 13:51:10;;;;;;;0.90;0.90;;;;;;;;;;4862014;29;20050;-86
2023/04/23 13:53:58;;;;;;;0.98;0.98;;;;;;;;;;4849361;29;20046;-86
2023/04/23 13:56:29;;;;;;;0.88;0.88;;;;;;;;;;4859064;29;20050;-87
2023/04/23 13:59:03;;;;;;;3.20;1.00;;;;;;;;;;4853008;29;20074;-86
2023/04/23 14:01:48;;;;;;;1.00;1.00;;;;;;;;;;4855102;29;20050;-84
2023/04/23 14:04:17;;;;;;;1.00;1.00;;;;;;;;;;4862406;29;20049;-86
2023/04/23 14:06:44;;;;;;;2.95;1.27;;;;;;;;;;4856280;29;20085;-84
2023/04/23 14:09:12;;;;;;;1.50;1.40;;;;;;;;;;4856344;29;20185;-84
2023/04/23 14:11:40;;;;;;;1.13;1.02;;;;;;;;;;4852274;29;20532;-86
2023/04/23 14:14:08;;;;;;;1.33;1.10;;;;;;;;;;4853934;29;20120;-86
2023/04/23 14:16:35;;;;;;;1.15;1.00;;;;;;;;;;4847996;29;20060;-85
2023/04/23 14:19:03;;;;;;;0.80;0.80;;;;;;;;;;4848758;29;20140;-84
2023/04/23 14:21:30;;;;;;;1.02;0.95;;;;;;;;;;4849727;29;20144;-85
2023/04/23 14:24:02;;;;;;;2.20;1.05;;;;;;;;;;4854096;29;20120;-83
2023/04/23 14:26:34;;;;;;;2.38;0.93;;;;;;;;;;4852259;29;20647;-85
2023/04/23 14:29:20;;;;;;;1.38;1.10;;;;;;;;;;4852648;29;20061;-86
2023/04/23 14:31:47;;;;;;;0.90;0.90;;;;;;;;;;4850540;29;20058;-85
2023/04/23 14:34:15;;;;;;;2.58;1.10;;;;;;;;;;4861949;29;20053;-84
2023/04/23 14:36:43;;;;;;;1.27;1.17;;;;;;;;;;4849656;29;20076;-84
2023/04/23 14:39:11;;;;;;;2.25;0.90;;;;;;;;;;4844077;29;20046;-84
2023/04/23 14:41:39;;;;;;;1.50;1.10;;;;;;;;;;4846865;29;20065;-86
2023/04/23 14:44:07;;;;;;;0.80;0.80;;;;;;;;;;4851352;29;20041;-84
2023/04/23 14:46:53;;;;;;;1.60;1.10;;;;;;;;;;4864334;29;20089;-87
2023/04/23 14:49:20;;;;;;;1.10;1.08;;;;;;;;;;4860112;29;20827;-85
2023/04/23 14:51:49;;;;;;;1.90;1.20;;;;;;;;;;4865702;29;20049;-84
2023/04/23 14:54:17;;;;;;;1.15;1.10;;;;;;;;;;4856648;29;20133;-86
2023/04/23 14:56:44;;;;;;;1.23;1.10;;;;;;;;;;4858763;29;20088;-83